Time;durP1;ratioP1;P1;durP2;ratioP2;P2;SDS_P1;SDS_P2;PMS_P1;PMS_P2;Temp;Humidity;BMP_temperature;BMP_pressure;BME280_temperature;BME280_humidity;BME280_pressure;Samples;Min_cycle;Max_cycle;Signal;HPM_P1;HPM_P2
2023/06/29 00:01:45;;;;;;;4.13;3.80;;;;;;;;;;5074191;28;20478;-57
2023/06/29 00:04:21;;;;;;;7.53;3.60;;;;;;;;;;5074080;28;20814;-57
2023/06/29 00:06:49;;;;;;;4.43;4.03;;;;;;;;;;5073916;28;20448;-57
2023/06/29 00:09:17;;;;;;;3.77;3.47;;;;;;;;;;5055833;28;20529;-57
2023/06/29 00:11:44;;;;;;;3.70;3.40;;;;;;;;;;5073653;28;20451;-57
2023/06/29 00:14:14;;;;;;;3.87;3.57;;;;;;;;;;5073947;28;20533;-57
2023/06/29 00:16:41;;;;;;;4.70;3.60;;;;;;;;;;5073796;28;20456;-58
2023/06/29 00:19:08;;;;;;;5.30;4.80;;;;;;;;;;5073759;28;20561;-57
2023/06/29 00:21:35;;;;;;;4.63;3.30;;;;;;;;;;5073582;28;20570;-57
2023/06/29 00:24:02;;;;;;;4.70;4.40;;;;;;;;;;5073623;28;20478;-57
2023/06/29 00:26:30;;;;;;;4.10;3.80;;;;;;;;;;5073367;28;20506;-57
2023/06/29 00:28:57;;;;;;;5.20;4.27;;;;;;;;;;5073409;28;20453;-57
2023/06/29 00:31:26;;;;;;;4.07;3.77;;;;;;;;;;5073436;28;20555;-57
2023/06/29 00:33:53;;;;;;;6.23;3.93;;;;;;;;;;5073375;28;20450;-57
2023/06/29 00:36:20;;;;;;;5.93;3.97;;;;;;;;;;5073342;28;20541;-57
2023/06/29 00:38:47;;;;;;;4.80;3.47;;;;;;;;;;5073248;28;20548;-57
2023/06/29 00:41:14;;;;;;;3.80;3.50;;;;;;;;;;5072998;28;20489;-56
2023/06/29 00:43:43;;;;;;;4.93;4.27;;;;;;;;;;5073323;28;20454;-58
2023/06/29 00:46:10;;;;;;;5.50;3.70;;;;;;;;;;5073256;28;20454;-57
2023/06/29 00:48:39;;;;;;;3.60;3.40;;;;;;;;;;5073153;28;20485;-57
2023/06/29 00:51:06;;;;;;;7.27;3.80;;;;;;;;;;5073106;28;20545;-56
2023/06/29 00:53:33;;;;;;;6.00;3.97;;;;;;;;;;5072933;28;20994;-57
2023/06/29 00:56:02;;;;;;;4.17;3.87;;;;;;;;;;5073025;28;20550;-57
2023/06/29 00:58:30;;;;;;;4.57;4.00;;;;;;;;;;5073097;28;20511;-57
2023/06/29 01:00:58;;;;;;;4.57;4.17;;;;;;;;;;5072936;28;20477;-57
2023/06/29 01:03:27;;;;;;;4.60;4.20;;;;;;;;;;5072843;28;20948;-57
2023/06/29 01:05:57;;;;;;;5.53;4.10;;;;;;;;;;5072907;28;20993;-58
2023/06/29 01:08:29;;;;;;;4.33;4.00;;;;;;;;;;5072420;28;20561;-55
2023/06/29 01:10:56;;;;;;;3.70;3.50;;;;;;;;;;5072997;28;20548;-57
2023/06/29 01:13:24;;;;;;;4.03;3.80;;;;;;;;;;5072894;28;20544;-58
2023/06/29 01:15:52;;;;;;;5.17;4.10;;;;;;;;;;5072800;28;20456;-57
2023/06/29 01:18:19;;;;;;;4.80;4.50;;;;;;;;;;5072683;28;20477;-57
2023/06/29 01:20:49;;;;;;;4.83;4.53;;;;;;;;;;5072489;28;20896;-58
2023/06/29 01:23:19;;;;;;;5.60;4.23;;;;;;;;;;5073020;28;20523;-58
2023/06/29 01:25:47;;;;;;;4.67;4.23;;;;;;;;;;5072722;28;20459;-57
2023/06/29 01:28:14;;;;;;;4.90;4.50;;;;;;;;;;5072592;28;21024;-57
2023/06/29 01:30:49;;;;;;;3.77;3.57;;;;;;;;;;5072640;28;21050;-57
2023/06/29 01:33:17;;;;;;;5.20;4.70;;;;;;;;;;5072595;28;20449;-56
2023/06/29 01:35:44;;;;;;;6.17;4.80;;;;;;;;;;5072834;28;20557;-57
2023/06/29 01:38:14;;;;;;;4.43;4.03;;;;;;;;;;5072699;28;20448;-57
2023/06/29 01:40:42;;;;;;;5.30;4.17;;;;;;;;;;5072561;28;20560;-58
2023/06/29 01:43:10;;;;;;;5.40;4.30;;;;;;;;;;5072674;28;20460;-58
2023/06/29 01:45:37;;;;;;;4.23;3.93;;;;;;;;;;5072412;28;20545;-58
2023/06/29 01:48:04;;;;;;;4.23;3.93;;;;;;;;;;5072797;28;20882;-58
2023/06/29 01:50:31;;;;;;;4.70;4.30;;;;;;;;;;5072587;28;20457;-57
2023/06/29 01:52:58;;;;;;;4.50;4.10;;;;;;;;;;5072559;28;20544;-57
2023/06/29 01:55:25;;;;;;;3.97;3.40;;;;;;;;;;5072270;28;20555;-58
2023/06/29 01:57:52;;;;;;;4.67;3.93;;;;;;;;;;5072551;28;21004;-59
2023/06/29 02:00:22;;;;;;;4.67;4.30;;;;;;;;;;5072180;28;20544;-57
2023/06/29 02:02:49;;;;;;;4.60;3.80;;;;;;;;;;5072570;28;20456;-57
2023/06/29 02:05:17;;;;;;;4.40;4.00;;;;;;;;;;5072478;28;20453;-57
2023/06/29 02:07:44;;;;;;;4.90;4.37;;;;;;;;;;5072274;28;20452;-57
2023/06/29 02:10:11;;;;;;;4.67;4.27;;;;;;;;;;5072287;28;20444;-59
2023/06/29 02:12:39;;;;;;;4.40;4.00;;;;;;;;;;5072350;28;20549;-58
2023/06/29 02:15:06;;;;;;;3.97;3.67;;;;;;;;;;5072415;28;20548;-57
2023/06/29 02:17:34;;;;;;;6.60;4.17;;;;;;;;;;5072274;28;20532;-58
2023/06/29 02:20:01;;;;;;;4.30;4.00;;;;;;;;;;5074817;28;20809;-57
2023/06/29 02:22:28;;;;;;;4.53;3.87;;;;;;;;;;5076227;28;20498;-57
2023/06/29 02:24:55;;;;;;;4.43;4.13;;;;;;;;;;5075775;28;20535;-57
2023/06/29 02:27:22;;;;;;;3.90;3.60;;;;;;;;;;5075749;28;20543;-57
2023/06/29 02:29:49;;;;;;;4.33;4.03;;;;;;;;;;5075873;28;20510;-57
2023/06/29 02:32:16;;;;;;;5.00;4.50;;;;;;;;;;5075745;28;20544;-57
2023/06/29 02:34:44;;;;;;;4.10;3.73;;;;;;;;;;5075724;28;20535;-57
2023/06/29 02:37:11;;;;;;;4.93;4.60;;;;;;;;;;5075686;28;20569;-55
2023/06/29 02:39:38;;;;;;;4.47;4.07;;;;;;;;;;5075402;28;20456;-58
2023/06/29 02:42:05;;;;;;;5.43;3.80;;;;;;;;;;5075356;28;20574;-56
2023/06/29 02:44:32;;;;;;;4.67;3.80;;;;;;;;;;5075649;28;20548;-57
2023/06/29 02:46:59;;;;;;;3.87;3.67;;;;;;;;;;5075562;28;20869;-57
2023/06/29 02:49:26;;;;;;;5.50;4.33;;;;;;;;;;5075360;28;20445;-57
2023/06/29 02:51:54;;;;;;;4.27;3.97;;;;;;;;;;5075383;28;21004;-57
2023/06/29 02:54:21;;;;;;;4.70;4.50;;;;;;;;;;5075240;28;20456;-57
2023/06/29 02:56:48;;;;;;;3.93;3.63;;;;;;;;;;5075181;28;20480;-57
2023/06/29 02:59:15;;;;;;;3.97;3.57;;;;;;;;;;5075262;28;20959;-57
2023/06/29 03:01:42;;;;;;;4.10;3.70;;;;;;;;;;5075257;28;20488;-57
2023/06/29 03:04:09;;;;;;;3.50;3.27;;;;;;;;;;5075210;28;20456;-58
2023/06/29 03:06:36;;;;;;;3.83;3.53;;;;;;;;;;5075040;28;20539;-57
2023/06/29 03:09:04;;;;;;;4.37;3.97;;;;;;;;;;5075033;28;20459;-57
2023/06/29 03:11:31;;;;;;;4.00;3.53;;;;;;;;;;5075166;28;20495;-57
2023/06/29 03:13:58;;;;;;;4.20;3.50;;;;;;;;;;5074960;28;20539;-57
2023/06/29 03:16:25;;;;;;;6.00;3.90;;;;;;;;;;5074978;28;20528;-57
2023/06/29 03:18:51;;;;;;;3.60;3.40;;;;;;;;;;5074868;28;20539;-57
2023/06/29 03:21:19;;;;;;;3.90;3.67;;;;;;;;;;5074820;28;20473;-58
2023/06/29 03:23:46;;;;;;;5.63;5.13;;;;;;;;;;5074790;28;20805;-57
2023/06/29 03:26:14;;;;;;;4.77;3.90;;;;;;;;;;5074985;28;20496;-57
2023/06/29 03:28:42;;;;;;;5.57;5.13;;;;;;;;;;5074804;28;20525;-57
2023/06/29 03:31:09;;;;;;;5.00;4.60;;;;;;;;;;5073900;28;20451;-57
2023/06/29 03:33:35;;;;;;;3.90;3.60;;;;;;;;;;5074590;28;20474;-57
2023/06/29 03:36:04;;;;;;;4.60;3.63;;;;;;;;;;5074392;28;20481;-57
2023/06/29 03:38:31;;;;;;;5.20;4.27;;;;;;;;;;5074763;28;20540;-57
2023/06/29 03:40:58;;;;;;;4.30;4.00;;;;;;;;;;5074525;28;20543;-57
2023/06/29 03:43:26;;;;;;;4.67;4.23;;;;;;;;;;5074423;28;20560;-57
2023/06/29 03:45:53;;;;;;;4.03;3.83;;;;;;;;;;5074382;28;20449;-57
2023/06/29 03:48:20;;;;;;;4.30;4.00;;;;;;;;;;5074411;28;20553;-58
2023/06/29 03:50:47;;;;;;;4.10;3.70;;;;;;;;;;5074423;28;20448;-56
2023/06/29 03:53:14;;;;;;;4.10;3.70;;;;;;;;;;5074325;28;20549;-59
2023/06/29 03:55:41;;;;;;;5.23;4.20;;;;;;;;;;5074086;28;20922;-55
2023/06/29 03:58:08;;;;;;;4.10;3.67;;;;;;;;;;5074043;28;20451;-57
2023/06/29 04:00:36;;;;;;;11.53;6.00;;;;;;;;;;5074087;28;20870;-56
2023/06/29 04:03:03;;;;;;;7.83;4.33;;;;;;;;;;5073716;28;20568;-57
2023/06/29 04:05:31;;;;;;;6.47;4.30;;;;;;;;;;5074113;28;20458;-57
2023/06/29 04:07:58;;;;;;;4.50;4.10;;;;;;;;;;5074119;28;20453;-57
2023/06/29 04:10:25;;;;;;;9.47;4.43;;;;;;;;;;5073648;28;20555;-57
2023/06/29 04:12:52;;;;;;;5.63;5.13;;;;;;;;;;5073787;28;20547;-56
2023/06/29 04:15:18;;;;;;;5.63;4.50;;;;;;;;;;5073744;28;20548;-56
2023/06/29 04:17:47;;;;;;;7.60;3.97;;;;;;;;;;5073503;28;20544;-56
2023/06/29 04:20:14;;;;;;;4.60;4.30;;;;;;;;;;5073725;28;20454;-57
2023/06/29 04:22:41;;;;;;;6.30;4.90;;;;;;;;;;5073549;28;20573;-57
2023/06/29 04:25:08;;;;;;;5.33;4.80;;;;;;;;;;5073632;28;20541;-57
2023/06/29 04:27:35;;;;;;;5.33;4.27;;;;;;;;;;5073724;28;20479;-57
2023/06/29 04:30:03;;;;;;;5.70;5.30;;;;;;;;;;5073331;28;20849;-57
2023/06/29 04:32:30;;;;;;;5.40;4.60;;;;;;;;;;5055492;28;20849;-57
2023/06/29 04:34:59;;;;;;;6.73;4.67;;;;;;;;;;5073370;28;20543;-57
2023/06/29 04:37:27;;;;;;;4.70;4.30;;;;;;;;;;5073133;28;20990;-57
2023/06/29 04:39:54;;;;;;;5.50;5.00;;;;;;;;;;5073284;28;20453;-57
2023/06/29 04:42:25;;;;;;;4.60;4.20;;;;;;;;;;5073070;28;20815;-58
2023/06/29 04:44:52;;;;;;;4.67;4.10;;;;;;;;;;5073089;28;20969;-57
2023/06/29 04:47:19;;;;;;;4.70;4.40;;;;;;;;;;5073047;28;20786;-57
2023/06/29 04:49:51;;;;;;;4.20;3.90;;;;;;;;;;5073195;28;20466;-57
2023/06/29 04:52:19;;;;;;;4.83;4.33;;;;;;;;;;5073074;28;20830;-57
2023/06/29 04:54:46;;;;;;;4.30;4.03;;;;;;;;;;5073089;28;20567;-56
2023/06/29 04:57:13;;;;;;;4.50;4.20;;;;;;;;;;5072848;28;20482;-57
2023/06/29 04:59:40;;;;;;;5.03;4.70;;;;;;;;;;5073232;28;20545;-58
2023/06/29 05:02:07;;;;;;;5.30;4.20;;;;;;;;;;5072898;28;20552;-57
2023/06/29 05:04:36;;;;;;;4.60;4.20;;;;;;;;;;5072989;28;20538;-57
2023/06/29 05:07:03;;;;;;;4.00;3.70;;;;;;;;;;5072963;28;20530;-58
2023/06/29 05:09:41;;;;;;;4.87;4.13;;;;;;;;;;5073153;28;20616;-57
2023/06/29 05:12:09;;;;;;;4.33;3.90;;;;;;;;;;5073029;28;20450;-57
2023/06/29 05:14:40;;;;;;;3.90;3.60;;;;;;;;;;5073052;28;20498;-59
2023/06/29 05:17:08;;;;;;;5.13;3.90;;;;;;;;;;5072511;28;20488;-57
2023/06/29 05:19:37;;;;;;;4.87;4.47;;;;;;;;;;5072676;28;20450;-58
2023/06/29 05:22:04;;;;;;;4.17;3.87;;;;;;;;;;5072510;28;20538;-59
2023/06/29 05:24:33;;;;;;;4.23;3.87;;;;;;;;;;5072699;28;20537;-58
2023/06/29 05:27:00;;;;;;;5.37;3.97;;;;;;;;;;5072832;28;20512;-59
2023/06/29 05:29:27;;;;;;;4.00;3.70;;;;;;;;;;5072729;28;20501;-58
2023/06/29 05:31:54;;;;;;;6.40;4.13;;;;;;;;;;5072529;28;21036;-58
2023/06/29 05:34:20;;;;;;;5.13;4.63;;;;;;;;;;5072671;28;20529;-57
2023/06/29 05:36:47;;;;;;;4.57;4.23;;;;;;;;;;5054560;28;20448;-58
2023/06/29 05:39:14;;;;;;;5.10;4.00;;;;;;;;;;5072678;28;20481;-57
2023/06/29 05:41:43;;;;;;;4.10;3.53;;;;;;;;;;5072565;28;20558;-58
2023/06/29 05:44:10;;;;;;;3.97;3.60;;;;;;;;;;5072587;28;20456;-58
2023/06/29 05:46:37;;;;;;;4.70;3.67;;;;;;;;;;5072377;28;20531;-58
2023/06/29 05:49:04;;;;;;;4.10;3.40;;;;;;;;;;5072387;28;20446;-58
2023/06/29 05:51:31;;;;;;;3.43;3.07;;;;;;;;;;5072384;28;20880;-58
2023/06/29 05:53:58;;;;;;;6.10;3.57;;;;;;;;;;5073820;28;20451;-57
2023/06/29 05:56:25;;;;;;;8.07;3.40;;;;;;;;;;5076341;28;20562;-56
2023/06/29 05:58:54;;;;;;;4.90;3.43;;;;;;;;;;5076437;28;20534;-58
2023/06/29 06:01:21;;;;;;;4.50;3.43;;;;;;;;;;5076279;28;20452;-58
2023/06/29 06:03:48;;;;;;;4.60;3.30;;;;;;;;;;5076144;28;20513;-57
2023/06/29 06:06:15;;;;;;;3.20;3.00;;;;;;;;;;5076562;28;20547;-58
2023/06/29 06:08:42;;;;;;;3.47;3.27;;;;;;;;;;5076242;28;20545;-57
2023/06/29 06:11:09;;;;;;;4.33;3.40;;;;;;;;;;5076239;28;20543;-57
2023/06/29 06:13:36;;;;;;;3.80;2.97;;;;;;;;;;5076164;28;20509;-57
2023/06/29 06:16:05;;;;;;;2.90;2.70;;;;;;;;;;5076084;28;20448;-58
2023/06/29 06:18:32;;;;;;;3.40;3.20;;;;;;;;;;5075857;28;20846;-56
2023/06/29 06:20:59;;;;;;;3.30;2.87;;;;;;;;;;5076113;28;20535;-57
2023/06/29 06:23:26;;;;;;;3.63;3.33;;;;;;;;;;5075967;28;20600;-58
2023/06/29 06:25:54;;;;;;;5.00;3.17;;;;;;;;;;5075960;28;20883;-58
2023/06/29 06:28:21;;;;;;;3.60;3.00;;;;;;;;;;5075771;28;20447;-57
2023/06/29 06:30:49;;;;;;;4.13;3.07;;;;;;;;;;5075645;28;20939;-60
2023/06/29 06:33:17;;;;;;;4.10;2.90;;;;;;;;;;5075685;28;20458;-59
2023/06/29 06:35:44;;;;;;;3.70;3.00;;;;;;;;;;5075907;28;20456;-58
2023/06/29 06:38:11;;;;;;;3.23;2.93;;;;;;;;;;5075537;28;20452;-59
2023/06/29 06:40:38;;;;;;;7.40;3.93;;;;;;;;;;5075686;28;20538;-57
2023/06/29 06:43:05;;;;;;;4.20;2.53;;;;;;;;;;5075751;28;20488;-57
2023/06/29 06:45:32;;;;;;;5.13;3.70;;;;;;;;;;5075434;28;20495;-58
2023/06/29 06:47:59;;;;;;;3.80;3.27;;;;;;;;;;5075628;28;20539;-58
2023/06/29 06:50:27;;;;;;;3.50;3.20;;;;;;;;;;5075581;28;20448;-59
2023/06/29 06:52:54;;;;;;;4.27;3.10;;;;;;;;;;5075567;28;20803;-58
2023/06/29 06:55:23;;;;;;;3.87;3.03;;;;;;;;;;5075242;28;20480;-58
2023/06/29 06:57:50;;;;;;;2.93;2.60;;;;;;;;;;5075377;28;20942;-58
2023/06/29 07:00:18;;;;;;;2.87;2.13;;;;;;;;;;5075216;28;21007;-58
2023/06/29 07:02:45;;;;;;;2.60;2.40;;;;;;;;;;5075316;28;20494;-58
2023/06/29 07:05:11;;;;;;;6.57;2.90;;;;;;;;;;5074244;28;20454;-57
2023/06/29 07:07:40;;;;;;;2.20;2.00;;;;;;;;;;5074962;28;20889;-56
2023/06/29 07:10:07;;;;;;;3.80;2.60;;;;;;;;;;5074958;28;20456;-57
2023/06/29 07:12:36;;;;;;;3.17;2.27;;;;;;;;;;5074544;28;20535;-55
2023/06/29 07:15:03;;;;;;;9.00;4.87;;;;;;;;;;5074829;28;20450;-57
2023/06/29 07:17:32;;;;;;;2.90;2.70;;;;;;;;;;5074856;28;20535;-57
2023/06/29 07:19:59;;;;;;;3.60;2.97;;;;;;;;;;5074940;28;20454;-58
2023/06/29 07:22:26;;;;;;;2.80;2.60;;;;;;;;;;5074746;28;20556;-57
2023/06/29 07:24:55;;;;;;;2.63;2.43;;;;;;;;;;5074661;28;20479;-58
2023/06/29 07:27:22;;;;;;;2.67;2.47;;;;;;;;;;5074606;28;20815;-59
2023/06/29 07:29:49;;;;;;;3.63;2.50;;;;;;;;;;5074911;28;20534;-58
2023/06/29 07:32:16;;;;;;;4.43;2.97;;;;;;;;;;5074745;28;20534;-57
2023/06/29 07:34:43;;;;;;;3.70;2.30;;;;;;;;;;5074615;28;20633;-57
2023/06/29 07:37:10;;;;;;;4.20;2.47;;;;;;;;;;5074383;28;20526;-58
2023/06/29 07:39:37;;;;;;;5.13;2.50;;;;;;;;;;5074275;28;20854;-58
2023/06/29 07:42:06;;;;;;;2.30;2.10;;;;;;;;;;5074243;28;20895;-58
2023/06/29 07:44:33;;;;;;;2.10;1.83;;;;;;;;;;5074458;28;20488;-58
2023/06/29 07:47:00;;;;;;;2.37;2.10;;;;;;;;;;5074203;28;20483;-58
2023/06/29 07:49:27;;;;;;;3.30;2.00;;;;;;;;;;5074459;28;20456;-58
2023/06/29 07:51:54;;;;;;;6.70;2.10;;;;;;;;;;5074131;28;20985;-58
2023/06/29 07:54:21;;;;;;;5.67;2.53;;;;;;;;;;5073848;28;20495;-58
2023/06/29 07:56:48;;;;;;;2.17;2.07;;;;;;;;;;5073974;28;20498;-58
2023/06/29 07:59:16;;;;;;;2.70;2.30;;;;;;;;;;5073839;28;20452;-58
2023/06/29 08:01:43;;;;;;;4.30;2.30;;;;;;;;;;5073971;28;20498;-57
2023/06/29 08:04:10;;;;;;;1.70;1.60;;;;;;;;;;5073891;28;20567;-58
2023/06/29 08:06:41;;;;;;;1.50;1.40;;;;;;;;;;5073674;28;20530;-58
2023/06/29 08:09:08;;;;;;;2.03;1.50;;;;;;;;;;5073762;28;20450;-54
2023/06/29 08:11:35;;;;;;;2.33;1.20;;;;;;;;;;5073700;28;20538;-58
2023/06/29 08:14:03;;;;;;;1.47;1.30;;;;;;;;;;5073892;28;20548;-56
2023/06/29 08:16:32;;;;;;;1.30;1.20;;;;;;;;;;5073486;28;20506;-56
2023/06/29 08:18:59;;;;;;;1.60;1.40;;;;;;;;;;5073516;28;20495;-56
2023/06/29 08:21:26;;;;;;;1.20;1.10;;;;;;;;;;5073387;28;20547;-57
2023/06/29 08:23:53;;;;;;;1.30;1.20;;;;;;;;;;5073717;28;21201;-58
2023/06/29 08:26:20;;;;;;;1.20;1.00;;;;;;;;;;5073589;28;20452;-57
2023/06/29 08:28:47;;;;;;;1.30;1.20;;;;;;;;;;5073219;28;20542;-58
2023/06/29 08:31:14;;;;;;;3.00;1.20;;;;;;;;;;5073377;28;20448;-58
2023/06/29 08:33:43;;;;;;;1.77;1.30;;;;;;;;;;5073290;28;20483;-57
2023/06/29 08:36:10;;;;;;;1.40;1.30;;;;;;;;;;5073490;28;20440;-58
2023/06/29 08:38:37;;;;;;;2.53;1.33;;;;;;;;;;5073197;28;20448;-56
2023/06/29 08:41:05;;;;;;;2.70;1.20;;;;;;;;;;5073069;28;20501;-59
2023/06/29 08:43:33;;;;;;;1.73;1.00;;;;;;;;;;5073175;28;20480;-57
2023/06/29 08:46:00;;;;;;;1.23;1.13;;;;;;;;;;5072868;28;20455;-58
2023/06/29 08:48:27;;;;;;;2.00;1.40;;;;;;;;;;5073045;28;20464;-58
2023/06/29 08:51:00;;;;;;;1.47;1.17;;;;;;;;;;5073348;28;20483;-58
2023/06/29 08:53:28;;;;;;;1.53;1.43;;;;;;;;;;5073135;28;20875;-58
2023/06/29 08:55:55;;;;;;;1.20;1.10;;;;;;;;;;5073093;28;20571;-58
2023/06/29 08:58:22;;;;;;;1.30;1.20;;;;;;;;;;5073143;28;20539;-58
2023/06/29 09:00:50;;;;;;;1.83;1.40;;;;;;;;;;5073130;28;20989;-58
2023/06/29 09:03:20;;;;;;;1.87;1.70;;;;;;;;;;5073282;28;20478;-58
2023/06/29 09:05:54;;;;;;;1.57;1.47;;;;;;;;;;5073227;28;21018;-58
2023/06/29 09:08:23;;;;;;;2.00;1.80;;;;;;;;;;5073038;28;20447;-58
2023/06/29 09:10:50;;;;;;;2.30;2.10;;;;;;;;;;5072889;28;20452;-58
2023/06/29 09:13:18;;;;;;;2.20;2.00;;;;;;;;;;5072822;28;21076;-58
2023/06/29 09:15:48;;;;;;;1.83;1.73;;;;;;;;;;5072659;28;20990;-58
2023/06/29 09:18:15;;;;;;;2.47;1.60;;;;;;;;;;5072955;28;20459;-57
2023/06/29 09:20:44;;;;;;;3.80;1.97;;;;;;;;;;5072670;28;20502;-58
2023/06/29 09:23:14;;;;;;;3.53;1.70;;;;;;;;;;5072656;28;20842;-58
2023/06/29 09:25:43;;;;;;;2.07;1.50;;;;;;;;;;5072572;28;20981;-58
2023/06/29 09:28:11;;;;;;;1.60;1.50;;;;;;;;;;5071898;28;20457;-59
2023/06/29 09:30:40;;;;;;;2.70;1.43;;;;;;;;;;5072706;28;20448;-59
2023/06/29 09:33:07;;;;;;;1.80;1.60;;;;;;;;;;5072705;28;20531;-59
2023/06/29 09:35:34;;;;;;;1.27;1.17;;;;;;;;;;5072280;28;20448;-59
2023/06/29 09:38:02;;;;;;;1.93;1.60;;;;;;;;;;5072539;28;20509;-58
2023/06/29 09:40:29;;;;;;;2.30;1.53;;;;;;;;;;5072514;28;20807;-59
2023/06/29 09:42:58;;;;;;;1.90;1.23;;;;;;;;;;5072624;28;20535;-59
2023/06/29 09:45:28;;;;;;;1.67;1.30;;;;;;;;;;5072460;28;20539;-59
2023/06/29 09:47:55;;;;;;;2.87;1.60;;;;;;;;;;5072873;28;20448;-58
2023/06/29 09:50:23;;;;;;;3.00;1.63;;;;;;;;;;5072363;28;20858;-59
2023/06/29 09:52:51;;;;;;;2.50;1.70;;;;;;;;;;5072155;28;20962;-59
2023/06/29 09:55:19;;;;;;;2.17;1.30;;;;;;;;;;5071785;28;20947;-58
2023/06/29 09:57:49;;;;;;;1.30;1.20;;;;;;;;;;5072457;28;20480;-59
2023/06/29 10:00:18;;;;;;;2.60;1.70;;;;;;;;;;5072084;28;20451;-59
2023/06/29 10:02:45;;;;;;;2.00;1.40;;;;;;;;;;5072233;28;20452;-59
2023/06/29 10:05:12;;;;;;;1.50;1.30;;;;;;;;;;5072096;28;20531;-59
2023/06/29 10:07:40;;;;;;;3.57;1.70;;;;;;;;;;5072224;28;20543;-60
2023/06/29 10:10:10;;;;;;;1.43;1.33;;;;;;;;;;5072341;28;20479;-59
2023/06/29 10:12:37;;;;;;;1.30;1.20;;;;;;;;;;5072342;28;20543;-59
2023/06/29 10:15:08;;;;;;;1.47;1.20;;;;;;;;;;5072328;28;20451;-60
2023/06/29 10:17:42;;;;;;;1.80;1.30;;;;;;;;;;5072150;28;20457;-60
2023/06/29 10:20:10;;;;;;;1.83;1.20;;;;;;;;;;5072090;28;20455;-60
2023/06/29 10:22:38;;;;;;;2.80;2.00;;;;;;;;;;5071722;28;20451;-57
2023/06/29 10:25:07;;;;;;;2.50;1.20;;;;;;;;;;5071956;28;20484;-59
2023/06/29 10:27:35;;;;;;;1.30;1.20;;;;;;;;;;5072046;28;20452;-59
2023/06/29 10:30:03;;;;;;;1.70;1.13;;;;;;;;;;5072069;28;20938;-58
2023/06/29 10:32:31;;;;;;;1.13;1.03;;;;;;;;;;5072120;28;20443;-57
2023/06/29 10:35:04;;;;;;;4.00;1.33;;;;;;;;;;5071963;28;20483;-58
2023/06/29 10:37:31;;;;;;;2.67;1.20;;;;;;;;;;5071798;28;20447;-58
2023/06/29 10:40:00;;;;;;;1.47;1.37;;;;;;;;;;5072816;28;20962;-57
2023/06/29 10:42:48;;;;;;;1.30;1.17;;;;;;;;;;5075564;28;20447;-56
2023/06/29 10:45:30;;;;;;;2.50;1.20;;;;;;;;;;5069163;28;20471;-58
2023/06/29 10:48:01;;;;;;;2.27;1.60;;;;;;;;;;5075624;28;20448;-58
2023/06/29 10:50:30;;;;;;;1.70;1.60;;;;;;;;;;5075551;28;20539;-58
2023/06/29 10:52:59;;;;;;;1.30;1.20;;;;;;;;;;5075379;28;20546;-59
2023/06/29 10:55:28;;;;;;;3.00;1.33;;;;;;;;;;5074904;28;20493;-58
2023/06/29 10:57:58;;;;;;;1.60;1.50;;;;;;;;;;5075402;28;20791;-58
2023/06/29 11:00:26;;;;;;;1.43;1.30;;;;;;;;;;5075494;28;20458;-58
2023/06/29 11:02:53;;;;;;;5.27;2.00;;;;;;;;;;5075042;28;20455;-58
2023/06/29 11:05:21;;;;;;;1.60;1.50;;;;;;;;;;5056989;28;20502;-59
2023/06/29 11:07:51;;;;;;;1.73;1.23;;;;;;;;;;5075203;28;20487;-59
2023/06/29 11:10:19;;;;;;;2.67;1.67;;;;;;;;;;5075009;28;20954;-57
2023/06/29 11:12:46;;;;;;;1.83;1.63;;;;;;;;;;5075185;28;20448;-58
2023/06/29 11:15:14;;;;;;;4.17;2.00;;;;;;;;;;5075118;28;20814;-58
2023/06/29 11:17:41;;;;;;;2.27;2.07;;;;;;;;;;5074739;28;20448;-54
2023/06/29 11:20:15;;;;;;;2.03;1.93;;;;;;;;;;5074979;28;20886;-58
2023/06/29 11:22:42;;;;;;;4.43;1.80;;;;;;;;;;5074742;28;20452;-57
2023/06/29 11:25:12;;;;;;;3.27;1.83;;;;;;;;;;5074966;28;20486;-57
2023/06/29 11:27:39;;;;;;;1.73;1.60;;;;;;;;;;5074883;28;20462;-58
2023/06/29 11:30:09;;;;;;;2.50;1.70;;;;;;;;;;5074890;28;20447;-57
2023/06/29 11:32:36;;;;;;;1.63;1.50;;;;;;;;;;5074609;28;20561;-58
2023/06/29 11:35:04;;;;;;;2.20;2.00;;;;;;;;;;5074344;28;20546;-58
2023/06/29 11:37:31;;;;;;;1.83;1.70;;;;;;;;;;5074827;28;20460;-57
2023/06/29 11:39:58;;;;;;;1.90;1.80;;;;;;;;;;5074645;28;20518;-58
2023/06/29 11:42:27;;;;;;;1.90;1.80;;;;;;;;;;5074610;28;20459;-57
2023/06/29 11:45:02;;;;;;;5.30;2.50;;;;;;;;;;5074306;28;20480;-58
2023/06/29 11:47:29;;;;;;;1.60;1.50;;;;;;;;;;5074412;28;20520;-58
2023/06/29 11:49:57;;;;;;;2.57;1.70;;;;;;;;;;5074308;28;20463;-56
2023/06/29 11:52:25;;;;;;;1.50;1.40;;;;;;;;;;5073851;28;20780;-57
2023/06/29 11:54:52;;;;;;;1.97;1.87;;;;;;;;;;5074347;28;20448;-57
2023/06/29 11:57:19;;;;;;;3.47;2.20;;;;;;;;;;5074026;28;20474;-57
2023/06/29 11:59:48;;;;;;;1.93;1.80;;;;;;;;;;5074220;28;20444;-56
2023/06/29 12:02:15;;;;;;;3.50;1.63;;;;;;;;;;5073971;28;20535;-57
2023/06/29 12:04:55;;;;;;;1.67;1.43;;;;;;;;;;5074156;28;20506;-57
2023/06/29 12:07:36;;;;;;;2.27;1.93;;;;;;;;;;5074124;28;20435;-57
2023/06/29 12:10:03;;;;;;;2.63;1.97;;;;;;;;;;5074050;28;20459;-57
2023/06/29 12:12:30;;;;;;;2.27;2.07;;;;;;;;;;5073912;28;20538;-58
2023/06/29 12:15:11;;;;;;;1.60;1.50;;;;;;;;;;5074069;28;20554;-57
2023/06/29 12:17:38;;;;;;;2.50;2.30;;;;;;;;;;5073801;28;20543;-57
2023/06/29 12:20:11;;;;;;;4.70;2.30;;;;;;;;;;5073616;28;20544;-57
2023/06/29 12:22:39;;;;;;;4.53;1.97;;;;;;;;;;5073723;28;20494;-57
2023/06/29 12:25:06;;;;;;;2.40;2.30;;;;;;;;;;5073612;28;20479;-58
2023/06/29 12:27:33;;;;;;;2.10;2.00;;;;;;;;;;5073517;28;20883;-58
2023/06/29 12:30:01;;;;;;;5.57;2.37;;;;;;;;;;5073330;28;20546;-59
2023/06/29 12:32:28;;;;;;;2.23;2.00;;;;;;;;;;5073703;28;20463;-58
2023/06/29 12:34:55;;;;;;;2.30;2.20;;;;;;;;;;5073348;28;20452;-57
2023/06/29 12:37:22;;;;;;;2.73;2.53;;;;;;;;;;5073388;28;20848;-56
2023/06/29 12:39:49;;;;;;;2.27;2.17;;;;;;;;;;5073175;28;20893;-57
2023/06/29 12:42:17;;;;;;;6.53;2.27;;;;;;;;;;5073535;28;20539;-58
2023/06/29 12:44:44;;;;;;;2.17;1.97;;;;;;;;;;5073350;28;20484;-57
2023/06/29 12:47:12;;;;;;;3.20;2.37;;;;;;;;;;5073501;28;20554;-57
2023/06/29 12:49:39;;;;;;;6.07;2.20;;;;;;;;;;5073188;28;20878;-58
2023/06/29 12:52:06;;;;;;;2.80;1.77;;;;;;;;;;5073178;28;20452;-59
2023/06/29 12:54:35;;;;;;;2.07;1.83;;;;;;;;;;5072989;28;20447;-57
2023/06/29 12:57:03;;;;;;;2.27;1.80;;;;;;;;;;5072879;28;20483;-59
2023/06/29 12:59:30;;;;;;;2.10;1.90;;;;;;;;;;5073175;28;20440;-57
2023/06/29 13:02:04;;;;;;;1.87;1.77;;;;;;;;;;5073082;28;20815;-57
2023/06/29 13:04:34;;;;;;;2.33;2.13;;;;;;;;;;5072051;28;20472;-58
2023/06/29 13:07:01;;;;;;;2.23;2.03;;;;;;;;;;5072872;28;20533;-58
2023/06/29 13:09:28;;;;;;;2.17;1.80;;;;;;;;;;5072923;28;20533;-57
2023/06/29 13:11:55;;;;;;;2.07;1.80;;;;;;;;;;5072933;28;20546;-57
2023/06/29 13:14:22;;;;;;;3.60;2.30;;;;;;;;;;5072819;28;20535;-58
2023/06/29 13:16:49;;;;;;;2.20;2.10;;;;;;;;;;5072804;28;20470;-58
2023/06/29 13:19:16;;;;;;;2.20;2.10;;;;;;;;;;5072712;28;20539;-57
2023/06/29 13:21:45;;;;;;;2.47;2.27;;;;;;;;;;5072893;28;20535;-58
2023/06/29 13:24:12;;;;;;;2.40;2.20;;;;;;;;;;5072599;28;20468;-55
2023/06/29 13:26:38;;;;;;;2.23;2.03;;;;;;;;;;5072663;28;20452;-58
2023/06/29 13:29:05;;;;;;;2.90;2.70;;;;;;;;;;5072665;28;20447;-58
2023/06/29 13:31:32;;;;;;;2.03;1.83;;;;;;;;;;5072562;28;21015;-58
2023/06/29 13:33:59;;;;;;;4.07;1.80;;;;;;;;;;5072599;28;20450;-58
2023/06/29 13:36:26;;;;;;;2.07;1.97;;;;;;;;;;5072676;28;20481;-58
2023/06/29 13:38:55;;;;;;;4.37;2.40;;;;;;;;;;5072637;28;20491;-56
2023/06/29 13:41:35;;;;;;;4.47;2.20;;;;;;;;;;5072874;28;20815;-58
2023/06/29 13:44:02;;;;;;;3.90;2.20;;;;;;;;;;5072481;28;20817;-57
2023/06/29 13:46:29;;;;;;;2.37;2.17;;;;;;;;;;5072499;28;20543;-58
2023/06/29 13:48:56;;;;;;;2.70;2.40;;;;;;;;;;5072812;28;20494;-57
2023/06/29 13:51:24;;;;;;;1.93;1.83;;;;;;;;;;5072675;28;20494;-57
2023/06/29 13:53:51;;;;;;;3.07;2.70;;;;;;;;;;5072550;28;20534;-58
2023/06/29 13:56:19;;;;;;;3.70;2.10;;;;;;;;;;5072208;28;20480;-57
2023/06/29 13:58:46;;;;;;;2.20;2.00;;;;;;;;;;5072328;28;20534;-58
2023/06/29 14:01:13;;;;;;;2.17;1.97;;;;;;;;;;5072298;28;20450;-58
2023/06/29 14:03:40;;;;;;;3.23;2.40;;;;;;;;;;5072249;28;20479;-59
2023/06/29 14:06:07;;;;;;;1.97;1.80;;;;;;;;;;5072480;28;20574;-57
2023/06/29 14:08:35;;;;;;;3.27;2.27;;;;;;;;;;5072262;28;20822;-58
2023/06/29 14:11:02;;;;;;;3.67;2.50;;;;;;;;;;5072397;28;20452;-58
2023/06/29 14:13:30;;;;;;;3.00;2.50;;;;;;;;;;5072043;28;20550;-58
2023/06/29 14:15:58;;;;;;;2.30;2.10;;;;;;;;;;5074871;28;20954;-58
2023/06/29 14:18:25;;;;;;;2.40;1.97;;;;;;;;;;5076164;28;20927;-58
2023/06/29 14:20:52;;;;;;;2.90;1.77;;;;;;;;;;5075937;28;20535;-58
2023/06/29 14:23:19;;;;;;;2.07;1.87;;;;;;;;;;5075891;28;20542;-58
2023/06/29 14:25:46;;;;;;;2.50;2.30;;;;;;;;;;5075613;28;20835;-57
2023/06/29 14:28:13;;;;;;;3.73;2.13;;;;;;;;;;5075787;28;20543;-58
2023/06/29 14:30:41;;;;;;;2.30;2.13;;;;;;;;;;5076065;28;20534;-58
2023/06/29 14:33:08;;;;;;;2.93;2.00;;;;;;;;;;5075851;28;20793;-58
2023/06/29 14:35:35;;;;;;;3.20;1.77;;;;;;;;;;5075558;28;20539;-59
2023/06/29 14:38:02;;;;;;;2.07;1.97;;;;;;;;;;5075087;28;20456;-58
2023/06/29 14:40:30;;;;;;;2.37;2.07;;;;;;;;;;5075480;28;20542;-58
2023/06/29 14:42:57;;;;;;;2.30;2.10;;;;;;;;;;5076090;28;20535;-58
2023/06/29 14:45:24;;;;;;;3.70;2.03;;;;;;;;;;5075662;28;20489;-58
2023/06/29 14:47:52;;;;;;;2.30;2.20;;;;;;;;;;5075692;28;20534;-58